sensor_id;sensor_type;location;lat;lon;timestamp;P1;durP1;ratioP1;P2;durP2;ratioP2
37485;SDS011;23341;50.296;18.960;2022-09-09T00:03:43;16.38;;;14.57;;
37485;SDS011;23341;50.296;18.960;2022-09-09T00:08:57;17.30;;;12.27;;
37485;SDS011;23341;50.296;18.960;2022-09-09T00:14:10;15.02;;;12.75;;
37485;SDS011;23341;50.296;18.960;2022-09-09T00:19:23;18.25;;;14.98;;
37485;SDS011;23341;50.296;18.960;2022-09-09T00:24:32;18.23;;;15.30;;
37485;SDS011;23341;50.296;18.960;2022-09-09T00:29:45;24.58;;;19.20;;
37485;SDS011;23341;50.296;18.960;2022-09-09T00:34:58;22.80;;;19.92;;
37485;SDS011;23341;50.296;18.960;2022-09-09T00:40:11;26.90;;;20.58;;
37485;SDS011;23341;50.296;18.960;2022-09-09T00:45:43;31.45;;;22.42;;
37485;SDS011;23341;50.296;18.960;2022-09-09T00:51:12;29.17;;;22.17;;
37485;SDS011;23341;50.296;18.960;2022-09-09T00:56:22;27.70;;;22.80;;
37485;SDS011;23341;50.296;18.960;2022-09-09T01:01:33;38.10;;;24.23;;
37485;SDS011;23341;50.296;18.960;2022-09-09T01:06:38;39.83;;;27.58;;
37485;SDS011;23341;50.296;18.960;2022-09-09T01:11:47;45.15;;;29.38;;
37485;SDS011;23341;50.296;18.960;2022-09-09T01:17:19;34.28;;;26.02;;
37485;SDS011;23341;50.296;18.960;2022-09-09T01:22:44;44.80;;;28.83;;
37485;SDS011;23341;50.296;18.960;2022-09-09T01:28:00;42.47;;;29.38;;
37485;SDS011;23341;50.296;18.960;2022-09-09T01:33:09;51.35;;;31.35;;
37485;SDS011;23341;50.296;18.960;2022-09-09T01:43:26;43.15;;;30.25;;
37485;SDS011;23341;50.296;18.960;2022-09-09T01:48:32;40.08;;;30.15;;
37485;SDS011;23341;50.296;18.960;2022-09-09T01:53:44;40.28;;;30.15;;
37485;SDS011;23341;50.296;18.960;2022-09-09T01:58:57;39.17;;;29.00;;
37485;SDS011;23341;50.296;18.960;2022-09-09T02:04:14;42.15;;;29.60;;
37485;SDS011;23341;50.296;18.960;2022-09-09T02:09:29;36.15;;;28.95;;
37485;SDS011;23341;50.296;18.960;2022-09-09T02:14:36;35.30;;;27.33;;
37485;SDS011;23341;50.296;18.960;2022-09-09T02:19:45;32.30;;;26.70;;
37485;SDS011;23341;50.296;18.960;2022-09-09T02:25:03;33.28;;;26.10;;
37485;SDS011;23341;50.296;18.960;2022-09-09T02:30:12;34.03;;;27.55;;
37485;SDS011;23341;50.296;18.960;2022-09-09T02:35:23;32.13;;;26.80;;
37485;SDS011;23341;50.296;18.960;2022-09-09T02:40:30;33.58;;;25.77;;
37485;SDS011;23341;50.296;18.960;2022-09-09T02:45:41;34.72;;;26.02;;
37485;SDS011;23341;50.296;18.960;2022-09-09T02:50:53;29.98;;;25.27;;
37485;SDS011;23341;50.296;18.960;2022-09-09T02:56:08;29.58;;;25.13;;
37485;SDS011;23341;50.296;18.960;2022-09-09T03:01:21;33.50;;;26.42;;
37485;SDS011;23341;50.296;18.960;2022-09-09T03:06:25;36.20;;;25.27;;
37485;SDS011;23341;50.296;18.960;2022-09-09T03:11:40;36.83;;;27.35;;
37485;SDS011;23341;50.296;18.960;2022-09-09T03:16:47;36.13;;;28.40;;
37485;SDS011;23341;50.296;18.960;2022-09-09T03:21:51;39.83;;;26.25;;
37485;SDS011;23341;50.296;18.960;2022-09-09T03:26:56;31.65;;;25.70;;
37485;SDS011;23341;50.296;18.960;2022-09-09T03:32:02;32.17;;;23.70;;
37485;SDS011;23341;50.296;18.960;2022-09-09T03:37:07;30.63;;;25.05;;
37485;SDS011;23341;50.296;18.960;2022-09-09T03:42:12;28.90;;;23.00;;
37485;SDS011;23341;50.296;18.960;2022-09-09T03:47:26;29.67;;;24.52;;
37485;SDS011;23341;50.296;18.960;2022-09-09T03:52:39;30.65;;;23.95;;
37485;SDS011;23341;50.296;18.960;2022-09-09T03:57:51;36.25;;;26.08;;
37485;SDS011;23341;50.296;18.960;2022-09-09T04:02:59;34.83;;;26.65;;
37485;SDS011;23341;50.296;18.960;2022-09-09T04:08:03;36.45;;;25.42;;
37485;SDS011;23341;50.296;18.960;2022-09-09T04:13:08;33.53;;;24.88;;
37485;SDS011;23341;50.296;18.960;2022-09-09T04:18:17;38.08;;;28.92;;
37485;SDS011;23341;50.296;18.960;2022-09-09T04:23:23;54.55;;;39.28;;
37485;SDS011;23341;50.296;18.960;2022-09-09T04:28:30;39.90;;;30.80;;
37485;SDS011;23341;50.296;18.960;2022-09-09T04:33:38;30.00;;;25.00;;
37485;SDS011;23341;50.296;18.960;2022-09-09T04:38:45;35.40;;;24.27;;
37485;SDS011;23341;50.296;18.960;2022-09-09T04:43:52;39.72;;;26.45;;
37485;SDS011;23341;50.296;18.960;2022-09-09T04:48:58;31.33;;;24.88;;
37485;SDS011;23341;50.296;18.960;2022-09-09T04:54:06;29.60;;;24.08;;
37485;SDS011;23341;50.296;18.960;2022-09-09T04:59:13;29.52;;;23.15;;
37485;SDS011;23341;50.296;18.960;2022-09-09T05:04:23;31.70;;;25.00;;
37485;SDS011;23341;50.296;18.960;2022-09-09T05:09:28;36.38;;;28.05;;
37485;SDS011;23341;50.296;18.960;2022-09-09T05:14:34;40.00;;;30.27;;
37485;SDS011;23341;50.296;18.960;2022-09-09T05:19:43;39.92;;;29.70;;
37485;SDS011;23341;50.296;18.960;2022-09-09T05:24:48;42.90;;;30.50;;
37485;SDS011;23341;50.296;18.960;2022-09-09T05:29:54;31.38;;;25.85;;
37485;SDS011;23341;50.296;18.960;2022-09-09T05:35:02;32.38;;;23.83;;
37485;SDS011;23341;50.296;18.960;2022-09-09T05:40:08;32.33;;;24.70;;
37485;SDS011;23341;50.296;18.960;2022-09-09T05:45:15;28.70;;;22.08;;
37485;SDS011;23341;50.296;18.960;2022-09-09T05:50:21;23.95;;;19.73;;
37485;SDS011;23341;50.296;18.960;2022-09-09T05:55:32;22.50;;;19.05;;
37485;SDS011;23341;50.296;18.960;2022-09-09T06:00:38;20.15;;;16.75;;
37485;SDS011;23341;50.296;18.960;2022-09-09T06:05:45;18.70;;;16.88;;
37485;SDS011;23341;50.296;18.960;2022-09-09T06:10:49;19.33;;;16.23;;
37485;SDS011;23341;50.296;18.960;2022-09-09T06:15:55;17.73;;;15.70;;
37485;SDS011;23341;50.296;18.960;2022-09-09T06:21:05;16.20;;;14.68;;
37485;SDS011;23341;50.296;18.960;2022-09-09T06:26:12;14.00;;;12.60;;
37485;SDS011;23341;50.296;18.960;2022-09-09T06:31:21;14.57;;;13.15;;
37485;SDS011;23341;50.296;18.960;2022-09-09T06:36:35;13.70;;;10.15;;
37485;SDS011;23341;50.296;18.960;2022-09-09T06:41:42;6.82;;;6.13;;
37485;SDS011;23341;50.296;18.960;2022-09-09T06:47:09;6.57;;;5.82;;
37485;SDS011;23341;50.296;18.960;2022-09-09T06:52:18;5.53;;;4.78;;
37485;SDS011;23341;50.296;18.960;2022-09-09T06:57:22;5.75;;;4.50;;
37485;SDS011;23341;50.296;18.960;2022-09-09T07:02:41;6.53;;;3.95;;
37485;SDS011;23341;50.296;18.960;2022-09-09T07:07:48;4.22;;;3.05;;
37485;SDS011;23341;50.296;18.960;2022-09-09T07:12:55;2.83;;;2.63;;
37485;SDS011;23341;50.296;18.960;2022-09-09T07:18:02;3.70;;;3.13;;
37485;SDS011;23341;50.296;18.960;2022-09-09T07:23:09;3.40;;;3.00;;
37485;SDS011;23341;50.296;18.960;2022-09-09T07:28:14;7.75;;;3.58;;
37485;SDS011;23341;50.296;18.960;2022-09-09T07:33:19;3.60;;;2.75;;
37485;SDS011;23341;50.296;18.960;2022-09-09T07:38:25;4.50;;;2.78;;
37485;SDS011;23341;50.296;18.960;2022-09-09T07:43:30;3.85;;;2.08;;
37485;SDS011;23341;50.296;18.960;2022-09-09T07:48:36;3.47;;;2.13;;
37485;SDS011;23341;50.296;18.960;2022-09-09T07:53:43;2.58;;;2.38;;
37485;SDS011;23341;50.296;18.960;2022-09-09T07:58:49;3.88;;;2.97;;
37485;SDS011;23341;50.296;18.960;2022-09-09T08:03:55;3.22;;;2.95;;
37485;SDS011;23341;50.296;18.960;2022-09-09T08:09:06;3.28;;;3.08;;
37485;SDS011;23341;50.296;18.960;2022-09-09T08:14:13;3.88;;;3.05;;
37485;SDS011;23341;50.296;18.960;2022-09-09T08:19:18;4.07;;;2.58;;
37485;SDS011;23341;50.296;18.960;2022-09-09T08:24:24;2.95;;;2.63;;
37485;SDS011;23341;50.296;18.960;2022-09-09T08:29:29;3.28;;;2.88;;
37485;SDS011;23341;50.296;18.960;2022-09-09T08:34:34;3.83;;;3.15;;
37485;SDS011;23341;50.296;18.960;2022-09-09T08:39:49;5.22;;;2.90;;
37485;SDS011;23341;50.296;18.960;2022-09-09T08:45:03;3.83;;;3.20;;
37485;SDS011;23341;50.296;18.960;2022-09-09T08:50:26;6.00;;;3.60;;
37485;SDS011;23341;50.296;18.960;2022-09-09T08:55:45;4.50;;;3.10;;
37485;SDS011;23341;50.296;18.960;2022-09-09T09:01:00;2.75;;;2.53;;
37485;SDS011;23341;50.296;18.960;2022-09-09T09:06:30;6.22;;;3.20;;
37485;SDS011;23341;50.296;18.960;2022-09-09T09:11:48;2.75;;;2.45;;
37485;SDS011;23341;50.296;18.960;2022-09-09T09:16:56;4.22;;;2.88;;
37485;SDS011;23341;50.296;18.960;2022-09-09T09:22:05;3.63;;;1.87;;
37485;SDS011;23341;50.296;18.960;2022-09-09T09:27:21;3.72;;;2.20;;
37485;SDS011;23341;50.296;18.960;2022-09-09T09:32:35;2.83;;;1.77;;
37485;SDS011;23341;50.296;18.960;2022-09-09T09:37:44;6.27;;;2.30;;
37485;SDS011;23341;50.296;18.960;2022-09-09T09:43:18;2.33;;;1.60;;
37485;SDS011;23341;50.296;18.960;2022-09-09T09:48:26;1.92;;;1.50;;
37485;SDS011;23341;50.296;18.960;2022-09-09T09:53:34;2.70;;;1.50;;
37485;SDS011;23341;50.296;18.960;2022-09-09T09:58:50;1.85;;;1.38;;
37485;SDS011;23341;50.296;18.960;2022-09-09T10:04:14;4.10;;;1.80;;
37485;SDS011;23341;50.296;18.960;2022-09-09T10:09:22;6.15;;;2.47;;
37485;SDS011;23341;50.296;18.960;2022-09-09T10:14:32;1.55;;;1.45;;
37485;SDS011;23341;50.296;18.960;2022-09-09T10:19:50;2.38;;;1.60;;
37485;SDS011;23341;50.296;18.960;2022-09-09T10:25:16;3.17;;;2.13;;
37485;SDS011;23341;50.296;18.960;2022-09-09T10:30:33;4.50;;;2.88;;
37485;SDS011;23341;50.296;18.960;2022-09-09T10:35:52;3.78;;;1.60;;
37485;SDS011;23341;50.296;18.960;2022-09-09T10:41:16;2.25;;;2.10;;
37485;SDS011;23341;50.296;18.960;2022-09-09T10:46:31;1.40;;;1.30;;
37485;SDS011;23341;50.296;18.960;2022-09-09T10:51:45;6.38;;;1.55;;
37485;SDS011;23341;50.296;18.960;2022-09-09T10:56:56;2.70;;;1.42;;
37485;SDS011;23341;50.296;18.960;2022-09-09T11:02:11;2.20;;;1.63;;
37485;SDS011;23341;50.296;18.960;2022-09-09T11:07:24;1.42;;;1.33;;
37485;SDS011;23341;50.296;18.960;2022-09-09T11:12:36;4.10;;;1.52;;
37485;SDS011;23341;50.296;18.960;2022-09-09T11:17:45;1.95;;;1.50;;
37485;SDS011;23341;50.296;18.960;2022-09-09T11:22:54;2.65;;;1.05;;
37485;SDS011;23341;50.296;18.960;2022-09-09T11:28:06;2.17;;;1.02;;
37485;SDS011;23341;50.296;18.960;2022-09-09T11:33:48;4.00;;;1.50;;
37485;SDS011;23341;50.296;18.960;2022-09-09T11:39:05;2.00;;;1.30;;
37485;SDS011;23341;50.296;18.960;2022-09-09T11:44:31;2.43;;;1.30;;
37485;SDS011;23341;50.296;18.960;2022-09-09T11:49:41;2.05;;;1.20;;
37485;SDS011;23341;50.296;18.960;2022-09-09T11:54:49;2.13;;;1.23;;
37485;SDS011;23341;50.296;18.960;2022-09-09T11:59:54;2.17;;;0.90;;
37485;SDS011;23341;50.296;18.960;2022-09-09T12:05:02;2.55;;;1.08;;
37485;SDS011;23341;50.296;18.960;2022-09-09T12:10:20;1.63;;;1.10;;
37485;SDS011;23341;50.296;18.960;2022-09-09T12:15:28;3.70;;;1.40;;
37485;SDS011;23341;50.296;18.960;2022-09-09T12:20:36;1.65;;;1.52;;
37485;SDS011;23341;50.296;18.960;2022-09-09T12:25:47;3.95;;;1.50;;
37485;SDS011;23341;50.296;18.960;2022-09-09T12:31:00;1.33;;;1.13;;
37485;SDS011;23341;50.296;18.960;2022-09-09T12:36:14;1.27;;;1.05;;
37485;SDS011;23341;50.296;18.960;2022-09-09T12:41:23;1.33;;;1.23;;
37485;SDS011;23341;50.296;18.960;2022-09-09T12:46:31;1.90;;;1.00;;
37485;SDS011;23341;50.296;18.960;2022-09-09T12:51:41;1.63;;;1.20;;
37485;SDS011;23341;50.296;18.960;2022-09-09T12:56:47;5.00;;;1.20;;
37485;SDS011;23341;50.296;18.960;2022-09-09T13:01:57;2.42;;;1.10;;
37485;SDS011;23341;50.296;18.960;2022-09-09T13:07:07;2.58;;;1.60;;
37485;SDS011;23341;50.296;18.960;2022-09-09T13:12:13;3.58;;;2.15;;
37485;SDS011;23341;50.296;18.960;2022-09-09T13:17:21;2.28;;;1.35;;
37485;SDS011;23341;50.296;18.960;2022-09-09T13:22:30;1.90;;;1.30;;
37485;SDS011;23341;50.296;18.960;2022-09-09T13:27:39;4.30;;;1.55;;
37485;SDS011;23341;50.296;18.960;2022-09-09T13:32:45;2.95;;;1.33;;
37485;SDS011;23341;50.296;18.960;2022-09-09T13:37:51;1.50;;;1.08;;
37485;SDS011;23341;50.296;18.960;2022-09-09T13:42:56;1.25;;;1.10;;
37485;SDS011;23341;50.296;18.960;2022-09-09T13:48:08;2.70;;;1.52;;
37485;SDS011;23341;50.296;18.960;2022-09-09T13:53:16;2.13;;;1.52;;
37485;SDS011;23341;50.296;18.960;2022-09-09T13:58:21;1.67;;;1.33;;
37485;SDS011;23341;50.296;18.960;2022-09-09T14:03:28;1.83;;;1.63;;
37485;SDS011;23341;50.296;18.960;2022-09-09T14:08:34;3.85;;;1.40;;
37485;SDS011;23341;50.296;18.960;2022-09-09T14:13:40;3.53;;;1.50;;
37485;SDS011;23341;50.296;18.960;2022-09-09T14:18:44;2.58;;;1.35;;
37485;SDS011;23341;50.296;18.960;2022-09-09T14:23:51;3.17;;;1.23;;
37485;SDS011;23341;50.296;18.960;2022-09-09T14:28:57;3.42;;;1.42;;
37485;SDS011;23341;50.296;18.960;2022-09-09T14:34:03;1.75;;;1.25;;
37485;SDS011;23341;50.296;18.960;2022-09-09T14:39:10;2.00;;;1.38;;
37485;SDS011;23341;50.296;18.960;2022-09-09T14:44:15;2.20;;;1.20;;
37485;SDS011;23341;50.296;18.960;2022-09-09T14:49:19;4.60;;;1.38;;
37485;SDS011;23341;50.296;18.960;2022-09-09T14:54:25;1.90;;;1.60;;
37485;SDS011;23341;50.296;18.960;2022-09-09T14:59:30;3.67;;;1.52;;
37485;SDS011;23341;50.296;18.960;2022-09-09T15:04:34;2.63;;;1.65;;
37485;SDS011;23341;50.296;18.960;2022-09-09T15:09:41;5.30;;;1.30;;
37485;SDS011;23341;50.296;18.960;2022-09-09T15:14:46;5.20;;;1.30;;
37485;SDS011;23341;50.296;18.960;2022-09-09T15:19:53;6.55;;;3.47;;
37485;SDS011;23341;50.296;18.960;2022-09-09T15:24:59;3.08;;;1.48;;
37485;SDS011;23341;50.296;18.960;2022-09-09T15:30:04;2.15;;;1.33;;
37485;SDS011;23341;50.296;18.960;2022-09-09T15:35:10;3.60;;;1.98;;
37485;SDS011;23341;50.296;18.960;2022-09-09T15:40:16;3.28;;;1.80;;
37485;SDS011;23341;50.296;18.960;2022-09-09T15:45:20;2.65;;;2.00;;
37485;SDS011;23341;50.296;18.960;2022-09-09T15:50:25;2.75;;;1.55;;
37485;SDS011;23341;50.296;18.960;2022-09-09T15:55:32;2.22;;;1.23;;
37485;SDS011;23341;50.296;18.960;2022-09-09T16:00:37;2.78;;;1.40;;
37485;SDS011;23341;50.296;18.960;2022-09-09T16:05:42;5.97;;;2.33;;
37485;SDS011;23341;50.296;18.960;2022-09-09T16:10:48;3.50;;;2.47;;
37485;SDS011;23341;50.296;18.960;2022-09-09T16:15:53;8.15;;;2.60;;
37485;SDS011;23341;50.296;18.960;2022-09-09T16:20:58;6.00;;;3.45;;
37485;SDS011;23341;50.296;18.960;2022-09-09T16:26:05;6.00;;;2.15;;
37485;SDS011;23341;50.296;18.960;2022-09-09T16:31:10;5.38;;;1.75;;
37485;SDS011;23341;50.296;18.960;2022-09-09T16:36:19;2.15;;;1.70;;
37485;SDS011;23341;50.296;18.960;2022-09-09T16:41:27;3.67;;;2.28;;
37485;SDS011;23341;50.296;18.960;2022-09-09T16:46:34;4.40;;;2.70;;
37485;SDS011;23341;50.296;18.960;2022-09-09T16:51:41;4.65;;;2.45;;
37485;SDS011;23341;50.296;18.960;2022-09-09T16:56:50;7.82;;;2.67;;
37485;SDS011;23341;50.296;18.960;2022-09-09T17:01:55;4.07;;;2.80;;
37485;SDS011;23341;50.296;18.960;2022-09-09T17:06:59;4.53;;;3.28;;
37485;SDS011;23341;50.296;18.960;2022-09-09T17:12:06;9.60;;;3.22;;
37485;SDS011;23341;50.296;18.960;2022-09-09T17:17:12;3.60;;;2.75;;
37485;SDS011;23341;50.296;18.960;2022-09-09T17:22:33;4.05;;;2.63;;
37485;SDS011;23341;50.296;18.960;2022-09-09T17:27:39;6.63;;;2.95;;
37485;SDS011;23341;50.296;18.960;2022-09-09T17:32:43;6.82;;;4.53;;
37485;SDS011;23341;50.296;18.960;2022-09-09T17:37:48;5.50;;;3.55;;
37485;SDS011;23341;50.296;18.960;2022-09-09T17:42:57;7.55;;;3.22;;
37485;SDS011;23341;50.296;18.960;2022-09-09T17:48:04;4.57;;;3.42;;
37485;SDS011;23341;50.296;18.960;2022-09-09T17:53:09;9.48;;;3.72;;
37485;SDS011;23341;50.296;18.960;2022-09-09T17:58:15;10.65;;;3.97;;
37485;SDS011;23341;50.296;18.960;2022-09-09T18:03:19;13.27;;;4.18;;
37485;SDS011;23341;50.296;18.960;2022-09-09T18:08:23;11.40;;;5.35;;
37485;SDS011;23341;50.296;18.960;2022-09-09T18:13:30;13.52;;;6.00;;
37485;SDS011;23341;50.296;18.960;2022-09-09T18:18:36;15.77;;;5.32;;
37485;SDS011;23341;50.296;18.960;2022-09-09T18:23:41;13.70;;;6.65;;
37485;SDS011;23341;50.296;18.960;2022-09-09T18:28:51;13.32;;;7.72;;
37485;SDS011;23341;50.296;18.960;2022-09-09T18:33:58;11.05;;;7.53;;
37485;SDS011;23341;50.296;18.960;2022-09-09T18:46:18;20.83;;;10.07;;
37485;SDS011;23341;50.296;18.960;2022-09-09T18:51:24;18.77;;;9.95;;
37485;SDS011;23341;50.296;18.960;2022-09-09T18:56:31;16.08;;;10.38;;
37485;SDS011;23341;50.296;18.960;2022-09-09T19:01:38;16.40;;;10.38;;
37485;SDS011;23341;50.296;18.960;2022-09-09T19:06:44;15.23;;;8.85;;
37485;SDS011;23341;50.296;18.960;2022-09-09T19:11:49;12.05;;;8.98;;
37485;SDS011;23341;50.296;18.960;2022-09-09T19:16:56;13.23;;;8.63;;
37485;SDS011;23341;50.296;18.960;2022-09-09T19:22:01;13.43;;;9.07;;
37485;SDS011;23341;50.296;18.960;2022-09-09T19:32:16;12.45;;;7.53;;
37485;SDS011;23341;50.296;18.960;2022-09-09T19:37:41;14.00;;;8.27;;
37485;SDS011;23341;50.296;18.960;2022-09-09T19:42:45;17.35;;;7.57;;
37485;SDS011;23341;50.296;18.960;2022-09-09T19:47:52;11.85;;;7.03;;
37485;SDS011;23341;50.296;18.960;2022-09-09T19:52:57;11.00;;;7.25;;
37485;SDS011;23341;50.296;18.960;2022-09-09T19:58:02;11.63;;;8.60;;
37485;SDS011;23341;50.296;18.960;2022-09-09T20:03:08;14.35;;;8.65;;
37485;SDS011;23341;50.296;18.960;2022-09-09T20:08:21;11.02;;;7.60;;
37485;SDS011;23341;50.296;18.960;2022-09-09T20:13:27;9.57;;;7.75;;
37485;SDS011;23341;50.296;18.960;2022-09-09T20:18:35;11.15;;;6.93;;
37485;SDS011;23341;50.296;18.960;2022-09-09T20:23:41;10.60;;;7.57;;
37485;SDS011;23341;50.296;18.960;2022-09-09T20:28:47;10.20;;;7.07;;
37485;SDS011;23341;50.296;18.960;2022-09-09T20:33:55;7.85;;;6.82;;
37485;SDS011;23341;50.296;18.960;2022-09-09T20:39:02;7.80;;;6.97;;
37485;SDS011;23341;50.296;18.960;2022-09-09T20:44:09;8.45;;;7.65;;
37485;SDS011;23341;50.296;18.960;2022-09-09T20:49:18;13.73;;;7.78;;
37485;SDS011;23341;50.296;18.960;2022-09-09T20:54:26;7.80;;;6.60;;
37485;SDS011;23341;50.296;18.960;2022-09-09T20:59:32;11.60;;;6.55;;
37485;SDS011;23341;50.296;18.960;2022-09-09T21:04:39;13.23;;;7.50;;
37485;SDS011;23341;50.296;18.960;2022-09-09T21:09:44;9.35;;;7.85;;
37485;SDS011;23341;50.296;18.960;2022-09-09T21:14:48;14.88;;;7.03;;
37485;SDS011;23341;50.296;18.960;2022-09-09T21:19:54;8.70;;;7.65;;
37485;SDS011;23341;50.296;18.960;2022-09-09T21:24:59;11.27;;;7.80;;
37485;SDS011;23341;50.296;18.960;2022-09-09T21:30:03;17.85;;;9.15;;
37485;SDS011;23341;50.296;18.960;2022-09-09T21:35:10;10.68;;;7.30;;
37485;SDS011;23341;50.296;18.960;2022-09-09T21:40:15;15.73;;;8.38;;
37485;SDS011;23341;50.296;18.960;2022-09-09T21:45:19;15.55;;;8.52;;
37485;SDS011;23341;50.296;18.960;2022-09-09T21:50:26;13.65;;;8.70;;
37485;SDS011;23341;50.296;18.960;2022-09-09T21:55:31;11.80;;;7.93;;
37485;SDS011;23341;50.296;18.960;2022-09-09T22:00:39;12.05;;;8.40;;
37485;SDS011;23341;50.296;18.960;2022-09-09T22:05:46;14.60;;;7.88;;
37485;SDS011;23341;50.296;18.960;2022-09-09T22:10:55;11.90;;;8.02;;
37485;SDS011;23341;50.296;18.960;2022-09-09T22:16:00;9.75;;;7.30;;
37485;SDS011;23341;50.296;18.960;2022-09-09T22:21:08;14.93;;;7.75;;
37485;SDS011;23341;50.296;18.960;2022-09-09T22:26:14;11.18;;;8.40;;
37485;SDS011;23341;50.296;18.960;2022-09-09T22:31:18;9.50;;;7.65;;
37485;SDS011;23341;50.296;18.960;2022-09-09T22:36:26;14.13;;;9.10;;
37485;SDS011;23341;50.296;18.960;2022-09-09T22:41:31;16.05;;;9.55;;
37485;SDS011;23341;50.296;18.960;2022-09-09T22:46:35;12.68;;;10.40;;
37485;SDS011;23341;50.296;18.960;2022-09-09T22:51:42;20.70;;;11.27;;
37485;SDS011;23341;50.296;18.960;2022-09-09T22:56:46;14.80;;;11.20;;
37485;SDS011;23341;50.296;18.960;2022-09-09T23:01:51;16.80;;;11.02;;
37485;SDS011;23341;50.296;18.960;2022-09-09T23:06:58;13.75;;;10.55;;
37485;SDS011;23341;50.296;18.960;2022-09-09T23:12:02;20.60;;;10.55;;
37485;SDS011;23341;50.296;18.960;2022-09-09T23:17:09;15.52;;;8.88;;
37485;SDS011;23341;50.296;18.960;2022-09-09T23:22:22;14.95;;;9.13;;
37485;SDS011;23341;50.296;18.960;2022-09-09T23:27:28;16.05;;;9.63;;
37485;SDS011;23341;50.296;18.960;2022-09-09T23:32:34;13.30;;;9.60;;
37485;SDS011;23341;50.296;18.960;2022-09-09T23:37:40;13.65;;;10.18;;
37485;SDS011;23341;50.296;18.960;2022-09-09T23:42:44;13.93;;;10.00;;
37485;SDS011;23341;50.296;18.960;2022-09-09T23:47:49;13.40;;;10.10;;
37485;SDS011;23341;50.296;18.960;2022-09-09T23:52:59;11.82;;;8.75;;
37485;SDS011;23341;50.296;18.960;2022-09-09T23:58:04;13.00;;;10.00;;
